Nakhchivan — 9HHK8 — position and weather

sailwx.info

Track history (hours):
 
Tides and Currents Weather Stations Pressure Air Temp Water Temp Dewpoint Dewpoint Depression Visibility Wind Speed Wind Dir Waves Ship Positions

Nakhchivan

Last reported at 2014-Nov-20 01:25 UTC. Time now 2014-Nov-21 02:30 UTC.
Position N 36°56' E 001°43'.

Length 139 m; draft 4.5 m.

Type: Cargo ship. MMSI: 215983000.

Date/timePositionNaut miles runAvg speedWind from/ knotsBaromVisibWave heightAir tempDewpointWater temp
2014-Nov-20 01:25N 36°56' E 001°43'46 5.8
2014-Nov-19 17:26N 37°02' E 002°40'27 6.9
2014-Nov-19 13:33N 37°07' E 003°13'15 6.3
2014-Nov-19 11:07N 37°08' E 003°33'10 6.4
2014-Nov-19 09:33N 37°09' E 003°45'  
2014-Nov-15 23:27N 36°23' E 013°49'7 7.1
2014-Nov-15 22:31N 36°20' E 013°56'22 6.9
2014-Nov-15 19:21N 36°09' E 014°20'7 7.5
2014-Nov-15 18:22N 36°03' E 014°24'3 1.9
2014-Nov-15 16:32N 35°59' E 014°25'  
2014-Nov-10 07:16N 37°45' E 024°18'  
Track history (hours):
 
Tides and Currents Weather Stations Pressure Air Temp Water Temp Dewpoint Dewpoint Depression Visibility Wind Speed Wind Dir Waves Ship Positions

Nakhchivan

Last reported at 2014-Nov-20 01:25 UTC. Time now 2014-Nov-21 02:30 UTC.
Position N 36°56' E 001°43'.

Length 139 m; draft 4.5 m.

Type: Cargo ship. MMSI: 215983000.

Date/timePositionNaut miles runAvg speedWind from/ knotsBaromVisibWave heightAir tempDewpointWater temp
2014-Nov-20 01:25N 36°56' E 001°43'46 5.8
2014-Nov-19 17:26N 37°02' E 002°40'27 6.9
2014-Nov-19 13:33N 37°07' E 003°13'15 6.3
2014-Nov-19 11:07N 37°08' E 003°33'10 6.4
2014-Nov-19 09:33N 37°09' E 003°45'  
2014-Nov-15 23:27N 36°23' E 013°49'7 7.1
2014-Nov-15 22:31N 36°20' E 013°56'22 6.9
2014-Nov-15 19:21N 36°09' E 014°20'7 7.5
2014-Nov-15 18:22N 36°03' E 014°24'3 1.9
2014-Nov-15 16:32N 35°59' E 014°25'  
2014-Nov-10 07:16N 37°45' E 024°18'  

Dump ship's entire track history